createdAt,value
2022-08-19T03:47:42.789Z,100179.00
2022-08-19T03:50:17.660Z,100175.00
2022-08-19T03:52:52.728Z,100184.00
2022-08-19T03:55:26.315Z,100188.00
2022-08-19T03:58:00.152Z,100182.00
2022-08-19T04:00:34.373Z,100186.00
2022-08-19T04:03:11.541Z,100186.00
2022-08-19T04:05:45.222Z,100185.00
2022-08-19T04:08:20.019Z,100192.00
2022-08-19T04:10:54.432Z,100196.00
2022-08-19T04:13:28.559Z,100197.00
2022-08-19T04:16:03.288Z,100147.00
2022-08-19T04:18:39.922Z,100195.00
2022-08-19T04:21:21.767Z,100200.00
2022-08-19T04:23:57.006Z,100199.00
2022-08-19T04:26:35.307Z,100189.00
2022-08-19T04:29:13.001Z,100200.00
2022-08-19T04:31:47.270Z,100199.00
2022-08-19T04:34:25.397Z,100195.00
2022-08-19T04:37:01.385Z,100197.00
2022-08-19T04:39:49.103Z,100210.00
2022-08-19T04:42:41.067Z,100211.00
2022-08-19T04:45:17.409Z,100189.00
2022-08-19T04:47:58.995Z,100205.00
2022-08-19T04:50:47.309Z,100212.00
2022-08-19T04:53:20.923Z,100200.00
2022-08-19T04:55:54.480Z,100219.00
2022-08-19T04:58:30.193Z,100211.00
2022-08-19T05:01:04.004Z,100212.00
2022-08-19T05:03:37.498Z,100224.00
2022-08-19T05:06:18.426Z,100226.00
2022-08-19T05:08:52.742Z,100226.00
2022-08-19T05:11:36.304Z,100238.00
2022-08-19T05:17:26.173Z,100210.00
2022-08-19T05:20:15.363Z,100230.00
2022-08-19T05:22:51.937Z,100224.00
2022-08-19T05:25:26.568Z,100234.00
2022-08-19T05:28:00.306Z,100223.00
2022-08-19T05:30:46.873Z,100218.00
2022-08-19T05:33:22.349Z,100233.00
2022-08-19T05:35:57.049Z,100221.00
2022-08-19T05:38:32.140Z,100232.00
2022-08-19T05:41:10.630Z,100235.00
2022-08-19T05:43:46.864Z,100232.00
2022-08-19T05:46:27.901Z,100230.00
2022-08-19T05:49:01.981Z,100236.00
2022-08-19T05:51:38.263Z,100230.00
2022-08-19T05:54:14.913Z,100238.00
2022-08-19T05:56:49.515Z,100227.00
2022-08-19T05:59:25.040Z,100236.00
2022-08-19T06:01:58.628Z,100222.00
2022-08-19T06:04:32.225Z,100231.00
2022-08-19T06:07:12.715Z,100219.00
2022-08-19T06:09:54.417Z,100215.00
2022-08-19T06:12:36.605Z,100235.00
2022-08-19T06:15:14.398Z,100227.00
2022-08-19T06:17:47.983Z,100230.00
2022-08-19T06:20:39.792Z,100239.00
2022-08-19T06:23:16.245Z,100214.00
2022-08-19T06:25:52.148Z,100235.00
2022-08-19T06:28:25.913Z,100241.00
2022-08-19T06:30:59.813Z,100227.00
2022-08-19T06:33:33.221Z,100237.00
2022-08-19T06:36:07.458Z,100248.00
2022-08-19T06:38:40.936Z,100236.00
2022-08-19T06:41:16.438Z,100219.00
2022-08-19T06:43:49.992Z,100242.00
2022-08-19T06:46:28.698Z,100235.00
2022-08-19T06:49:02.995Z,100231.00
2022-08-19T06:51:42.519Z,100245.00
2022-08-19T06:54:20.383Z,100243.00
2022-08-19T06:56:55.863Z,100221.00
2022-08-19T06:59:29.380Z,100241.00
2022-08-19T07:02:07.652Z,100236.00
2022-08-19T07:04:42.493Z,100232.00
2022-08-19T07:07:20.072Z,100243.00
2022-08-19T07:09:59.197Z,100243.00
2022-08-19T07:12:38.231Z,100244.00
2022-08-19T07:15:13.772Z,100249.00
2022-08-19T07:17:52.586Z,100242.00
2022-08-19T07:20:28.641Z,100252.00
2022-08-19T07:23:02.977Z,100238.00
2022-08-19T07:25:41.403Z,100247.00
2022-08-19T07:28:24.478Z,100249.00
2022-08-19T07:31:04.693Z,100245.00
2022-08-19T07:33:40.036Z,100264.00
2022-08-19T07:36:17.888Z,100262.00
2022-08-19T07:38:54.623Z,100279.00
2022-08-19T07:41:32.680Z,100276.00
2022-08-19T07:44:10.267Z,100267.00
2022-08-19T07:46:48.299Z,100277.00
2022-08-19T07:49:25.713Z,100282.00
2022-08-19T07:52:03.772Z,100280.00
2022-08-19T07:54:41.664Z,100288.00
2022-08-19T07:57:15.644Z,100291.00
2022-08-19T07:59:50.631Z,100285.00
2022-08-19T08:02:24.426Z,100288.00
2022-08-19T08:05:18.327Z,100291.00
2022-08-19T08:08:09.322Z,100300.00
2022-08-19T08:10:43.308Z,100307.00
2022-08-19T08:13:25.401Z,100313.00
2022-08-19T08:16:01.399Z,100304.00
2022-08-19T08:18:42.298Z,100311.00
2022-08-19T08:21:16.018Z,100314.00
2022-08-19T08:23:51.077Z,100315.00
2022-08-19T08:26:26.856Z,100324.00
2022-08-19T08:29:02.389Z,100326.00
2022-08-19T08:31:47.953Z,100312.00
2022-08-19T08:34:22.865Z,100320.00
2022-08-19T08:36:56.925Z,100326.00
2022-08-19T08:39:30.489Z,100319.00
2022-08-19T08:42:18.541Z,100333.00
2022-08-19T08:45:00.373Z,100330.00
2022-08-19T08:47:42.136Z,100343.00
2022-08-19T08:50:21.723Z,100337.00
2022-08-19T08:52:59.003Z,100326.00
2022-08-19T08:55:36.929Z,100330.00
2022-08-19T08:58:18.713Z,100323.00
2022-08-19T09:00:52.370Z,100331.00
2022-08-19T09:03:31.482Z,100323.00
2022-08-19T09:06:11.950Z,100318.00
2022-08-19T09:09:03.871Z,100305.00
2022-08-19T09:12:06.061Z,100313.00
2022-08-19T09:14:52.015Z,100298.00
2022-08-19T09:17:31.968Z,100322.00
2022-08-19T09:20:18.057Z,100300.00
2022-08-19T09:22:52.429Z,100318.00
2022-08-19T09:25:29.394Z,100316.00
2022-08-19T09:28:05.939Z,100320.00
2022-08-19T09:30:56.204Z,100310.00
2022-08-19T09:33:30.228Z,100321.00
2022-08-19T09:36:10.005Z,100314.00
2022-08-19T09:38:43.909Z,100309.00
2022-08-19T09:41:20.901Z,100316.00
2022-08-19T09:43:58.309Z,100313.00
2022-08-19T09:46:32.765Z,100309.00
2022-08-19T09:49:07.167Z,100313.00
2022-08-19T09:51:42.064Z,100315.00
2022-08-19T09:54:17.941Z,100298.00
2022-08-19T09:57:01.255Z,100322.00
2022-08-19T09:59:38.662Z,100307.00
2022-08-19T10:02:12.985Z,100311.00
2022-08-19T10:05:04.069Z,100312.00
2022-08-19T10:07:44.120Z,100314.00
2022-08-19T10:10:18.333Z,100322.00
2022-08-19T10:12:55.623Z,100320.00
2022-08-19T10:15:32.998Z,100317.00
2022-08-19T10:18:24.510Z,100311.00
2022-08-19T10:21:11.852Z,100304.00
2022-08-19T10:23:50.686Z,100307.00
2022-08-19T10:26:29.616Z,100309.00
2022-08-19T10:29:05.778Z,100315.00
2022-08-19T10:32:00.737Z,100311.00
2022-08-19T10:34:34.349Z,100305.00
2022-08-19T10:37:10.843Z,100308.00
2022-08-19T10:39:49.773Z,100306.00
2022-08-19T10:42:23.543Z,100300.00
2022-08-19T10:44:57.408Z,100310.00
2022-08-19T10:47:32.195Z,100300.00
2022-08-19T10:50:28.768Z,100280.00
2022-08-19T10:53:09.788Z,100305.00
2022-08-19T10:56:11.244Z,100302.00
2022-08-19T10:58:46.051Z,100297.00
2022-08-19T11:01:19.651Z,100298.00
2022-08-19T11:03:53.495Z,100303.00
2022-08-19T11:06:27.171Z,100308.00
2022-08-19T11:09:04.169Z,100303.00
2022-08-19T11:11:41.795Z,100307.00
2022-08-19T11:14:21.405Z,100307.00
2022-08-19T11:16:56.968Z,100306.00
2022-08-19T11:19:31.019Z,100316.00
2022-08-19T11:22:04.920Z,100299.00
2022-08-19T11:24:39.063Z,100307.00
2022-08-19T11:27:15.311Z,100300.00
2022-08-19T11:29:49.435Z,100298.00
2022-08-19T11:32:23.015Z,100295.00
2022-08-19T11:34:56.544Z,100289.00
2022-08-19T11:37:30.078Z,100287.00
2022-08-19T11:40:03.708Z,100295.00
2022-08-19T11:42:52.468Z,100290.00
2022-08-19T11:45:26.653Z,100298.00
2022-08-19T11:48:00.261Z,100293.00
2022-08-19T11:50:33.736Z,100293.00
2022-08-19T11:53:07.235Z,100294.00
2022-08-19T11:55:45.714Z,100282.00
2022-08-19T11:58:26.906Z,100293.00
2022-08-19T12:01:00.985Z,100281.00
2022-08-19T12:03:34.805Z,100287.00
2022-08-19T12:06:11.084Z,100285.00
2022-08-19T12:08:46.313Z,100284.00
2022-08-19T12:11:19.994Z,100285.00
2022-08-19T12:13:56.008Z,100289.00
2022-08-19T12:16:32.919Z,100286.00
2022-08-19T12:19:07.687Z,100292.00
2022-08-19T12:21:41.295Z,100271.00
2022-08-19T12:24:14.680Z,100276.00
2022-08-19T12:26:53.247Z,100281.00
2022-08-19T12:29:29.527Z,100266.00
2022-08-19T12:32:03.934Z,100256.00
2022-08-19T12:34:38.189Z,100279.00
2022-08-19T12:37:13.157Z,100279.00
2022-08-19T12:39:50.332Z,100279.00
2022-08-19T12:42:24.143Z,100278.00
2022-08-19T12:44:59.556Z,100265.00
2022-08-19T12:47:33.157Z,100243.00
2022-08-19T12:50:09.547Z,100278.00
2022-08-19T12:52:43.586Z,100274.00
2022-08-19T12:55:19.569Z,100266.00
2022-08-19T12:57:53.702Z,100267.00
2022-08-19T13:00:33.766Z,100278.00
2022-08-19T13:03:07.625Z,100270.00
2022-08-19T13:05:41.890Z,100269.00
2022-08-19T13:08:15.327Z,100269.00
2022-08-19T13:10:48.761Z,100268.00
2022-08-19T13:13:22.682Z,100266.00
2022-08-19T13:16:04.361Z,100251.00
2022-08-19T13:18:38.405Z,100251.00
2022-08-19T13:21:16.323Z,100260.00
2022-08-19T13:23:50.134Z,100231.00
2022-08-19T13:26:23.867Z,100244.00
2022-08-19T13:29:15.014Z,100220.00
2022-08-19T13:32:07.372Z,100234.00
2022-08-19T13:34:40.961Z,100237.00
2022-08-19T13:37:14.904Z,100222.00
2022-08-19T13:39:48.698Z,100232.00
2022-08-19T13:42:26.723Z,100232.00
2022-08-19T13:45:00.602Z,100234.00
2022-08-19T13:47:37.148Z,100226.00
2022-08-19T13:50:12.781Z,100237.00
2022-08-19T13:52:46.535Z,100236.00
2022-08-19T13:55:22.116Z,100225.00
2022-08-19T13:58:02.801Z,100228.00
2022-08-19T14:00:42.482Z,100216.00
2022-08-19T14:03:18.745Z,100209.00
2022-08-19T14:05:56.745Z,100218.00
2022-08-19T14:08:33.265Z,100211.00
2022-08-19T14:11:07.065Z,100205.00
2022-08-19T14:13:40.489Z,100217.00
2022-08-19T14:16:16.425Z,100198.00
2022-08-19T14:18:51.246Z,100218.00
2022-08-19T14:21:26.783Z,100207.00
2022-08-19T14:24:00.233Z,100208.00
2022-08-19T14:26:33.883Z,100215.00
2022-08-19T14:29:08.649Z,100224.00
2022-08-19T14:31:44.187Z,100223.00
2022-08-19T14:34:19.526Z,100217.00
2022-08-19T14:36:53.248Z,100214.00
2022-08-19T14:39:27.315Z,100226.00
2022-08-19T14:42:01.116Z,100216.00
2022-08-19T14:44:35.468Z,100220.00
2022-08-19T14:47:10.062Z,100227.00
2022-08-19T14:49:48.435Z,100238.00
2022-08-19T14:52:22.216Z,100221.00
2022-08-19T14:54:55.833Z,100233.00
2022-08-19T14:57:29.320Z,100240.00
2022-08-19T15:00:02.991Z,100227.00
2022-08-19T15:02:36.374Z,100242.00
2022-08-19T15:05:11.987Z,100241.00
2022-08-19T15:07:45.870Z,100231.00
2022-08-19T15:10:19.925Z,100232.00
2022-08-19T15:12:55.669Z,100245.00
2022-08-19T15:15:29.299Z,100241.00
2022-08-19T15:18:03.623Z,100240.00
2022-08-19T15:20:39.231Z,100250.00
2022-08-19T15:23:16.395Z,100247.00
2022-08-19T15:25:56.545Z,100245.00
2022-08-19T15:28:31.159Z,100219.00
2022-08-19T15:31:06.067Z,100251.00
2022-08-19T15:33:41.466Z,100260.00
2022-08-19T15:36:18.863Z,100268.00
2022-08-19T15:38:53.307Z,100270.00
2022-08-19T15:41:32.462Z,100269.00
2022-08-19T15:44:16.434Z,100253.00
2022-08-19T15:46:50.812Z,100271.00
2022-08-19T15:49:24.325Z,100277.00
2022-08-19T15:52:00.275Z,100252.00
2022-08-19T15:54:33.970Z,100281.00
2022-08-19T15:57:39.616Z,100281.00
2022-08-19T16:00:31.061Z,100277.00
2022-08-19T16:03:22.177Z,100273.00
2022-08-19T16:06:13.625Z,100267.00
2022-08-19T16:08:50.416Z,100270.00
2022-08-19T16:11:29.468Z,100269.00
2022-08-19T16:14:04.349Z,100278.00
2022-08-19T16:16:39.555Z,100270.00
2022-08-19T16:19:15.739Z,100263.00
2022-08-19T16:21:52.786Z,100275.00
2022-08-19T16:24:29.284Z,100275.00
2022-08-19T16:27:03.341Z,100281.00
2022-08-19T16:29:39.315Z,100288.00
2022-08-19T16:32:14.156Z,100294.00
2022-08-19T16:34:48.858Z,100286.00
2022-08-19T16:37:23.309Z,100283.00
2022-08-19T16:39:58.522Z,100292.00
2022-08-19T16:42:32.107Z,100294.00
2022-08-19T16:45:08.981Z,100295.00
2022-08-19T16:47:42.491Z,100303.00
2022-08-19T16:50:21.989Z,100289.00
2022-08-19T16:52:58.940Z,100296.00
2022-08-19T16:55:34.056Z,100281.00
2022-08-19T16:58:07.513Z,100288.00
2022-08-19T17:00:41.177Z,100280.00
2022-08-19T17:03:15.370Z,100290.00
2022-08-19T17:05:52.461Z,100276.00
2022-08-19T17:08:28.878Z,100290.00
2022-08-19T17:11:17.645Z,100277.00
2022-08-19T17:13:53.368Z,100287.00
2022-08-19T17:16:32.109Z,100285.00
2022-08-19T17:19:09.026Z,100286.00
2022-08-19T17:21:42.432Z,100272.00
2022-08-19T17:24:16.792Z,100281.00
2022-08-19T17:26:51.748Z,100268.00
2022-08-19T17:29:25.775Z,100275.00
2022-08-19T17:31:59.713Z,100276.00
2022-08-19T17:34:33.593Z,100271.00
2022-08-19T17:37:07.349Z,100275.00
2022-08-19T17:39:40.798Z,100269.00
2022-08-19T17:42:15.777Z,100274.00
2022-08-19T17:44:50.719Z,100274.00
2022-08-19T17:47:24.930Z,100265.00
2022-08-19T17:49:58.529Z,100259.00
2022-08-19T17:52:33.112Z,100264.00
2022-08-19T17:55:12.947Z,100272.00
2022-08-19T17:57:48.068Z,100239.00
2022-08-19T18:00:23.558Z,100269.00
2022-08-19T18:03:03.045Z,100271.00
2022-08-19T18:05:43.910Z,100267.00
2022-08-19T18:08:17.449Z,100271.00
2022-08-19T18:10:51.163Z,100262.00
2022-08-19T18:13:26.113Z,100279.00
2022-08-19T18:15:59.923Z,100270.00
2022-08-19T18:18:33.549Z,100278.00
2022-08-19T18:21:09.163Z,100289.00
2022-08-19T18:23:45.837Z,100287.00
2022-08-19T18:26:20.244Z,100290.00
2022-08-19T18:28:55.310Z,100284.00
2022-08-19T18:31:29.137Z,100286.00
2022-08-19T18:34:03.329Z,100293.00
2022-08-19T18:36:53.086Z,100289.00
2022-08-19T18:39:45.336Z,100295.00
2022-08-19T18:42:37.342Z,100293.00
2022-08-19T18:45:33.527Z,100286.00
2022-08-19T18:48:27.560Z,100299.00
2022-08-19T18:51:03.041Z,100292.00
2022-08-19T18:53:41.481Z,100298.00
2022-08-19T18:56:19.691Z,100293.00
2022-08-19T18:58:53.518Z,100295.00
2022-08-19T19:01:33.212Z,100288.00
2022-08-19T19:04:11.586Z,100300.00
2022-08-19T19:06:45.682Z,100303.00
2022-08-19T19:09:23.822Z,100303.00
2022-08-19T19:12:00.704Z,100303.00
2022-08-19T19:14:49.039Z,100307.00
2022-08-19T19:17:27.347Z,100323.00
2022-08-19T19:20:00.986Z,100321.00
2022-08-19T19:22:34.390Z,100326.00
2022-08-19T19:25:10.309Z,100323.00
2022-08-19T19:27:43.846Z,100331.00
2022-08-19T19:30:17.746Z,100325.00
2022-08-19T19:32:54.421Z,100330.00
2022-08-19T19:35:31.270Z,100321.00
2022-08-19T19:38:04.879Z,100323.00
2022-08-19T19:40:38.396Z,100317.00
2022-08-19T19:43:12.873Z,100331.00
2022-08-19T19:45:48.288Z,100337.00
2022-08-19T19:48:25.101Z,100337.00
2022-08-19T19:51:00.939Z,100339.00
2022-08-19T19:53:35.503Z,100330.00
2022-08-19T19:56:09.895Z,100356.00
2022-08-19T19:58:43.461Z,100344.00
2022-08-19T20:01:21.744Z,100341.00
2022-08-19T20:04:01.371Z,100351.00
2022-08-19T20:06:34.803Z,100361.00
2022-08-19T20:09:19.469Z,100368.00
2022-08-19T20:11:57.577Z,100376.00
2022-08-19T20:14:36.762Z,100369.00
2022-08-19T20:17:10.282Z,100371.00
2022-08-19T20:19:45.151Z,100376.00
2022-08-19T20:22:19.228Z,100374.00
2022-08-19T20:24:53.791Z,100381.00
2022-08-19T20:27:27.210Z,100374.00
2022-08-19T20:30:05.899Z,100371.00
2022-08-19T20:32:39.544Z,100388.00
2022-08-19T20:35:16.665Z,100388.00
2022-08-19T20:37:54.925Z,100386.00
2022-08-19T20:40:39.350Z,100379.00
2022-08-19T20:43:15.269Z,100380.00
2022-08-19T20:45:48.739Z,100379.00
2022-08-19T20:48:22.346Z,100390.00
2022-08-19T20:50:57.443Z,100370.00
2022-08-19T20:53:31.735Z,100393.00
2022-08-19T20:56:06.695Z,100381.00
2022-08-19T20:58:41.294Z,100393.00
2022-08-19T21:01:15.336Z,100379.00
2022-08-19T21:03:48.821Z,100366.00
2022-08-19T21:06:24.195Z,100385.00
2022-08-19T21:08:57.978Z,100378.00
2022-08-19T21:11:32.327Z,100386.00
2022-08-19T21:14:06.020Z,100382.00
2022-08-19T21:16:39.575Z,100379.00
2022-08-19T21:19:13.130Z,100378.00
2022-08-19T21:21:47.917Z,100384.00
2022-08-19T21:24:26.345Z,100392.00
2022-08-19T21:27:05.370Z,100386.00
2022-08-19T21:29:40.533Z,100392.00
2022-08-19T21:32:14.541Z,100397.00
2022-08-19T21:34:48.227Z,100397.00
2022-08-19T21:37:25.865Z,100387.00
2022-08-19T21:39:59.747Z,100401.00
2022-08-19T21:42:33.576Z,100401.00
2022-08-19T21:45:08.450Z,100396.00
2022-08-19T21:47:41.959Z,100396.00
2022-08-19T21:50:15.692Z,100400.00
2022-08-19T21:52:50.618Z,100379.00
2022-08-19T21:55:24.727Z,100398.00
2022-08-19T21:58:00.187Z,100394.00
2022-08-19T22:00:35.265Z,100388.00
2022-08-19T22:03:13.537Z,100399.00
2022-08-19T22:05:47.777Z,100377.00
2022-08-19T22:08:22.532Z,100395.00
2022-08-19T22:10:56.311Z,100389.00
2022-08-19T22:13:32.515Z,100388.00
2022-08-19T22:16:08.472Z,100386.00
2022-08-19T22:18:42.099Z,100398.00
2022-08-19T22:21:16.261Z,100398.00
2022-08-19T22:24:05.480Z,100393.00
2022-08-19T22:26:39.011Z,100397.00
2022-08-19T22:29:13.307Z,100392.00
2022-08-19T22:31:54.281Z,100399.00
2022-08-19T22:34:31.825Z,100392.00
2022-08-19T22:37:06.529Z,100402.00
2022-08-19T22:39:41.523Z,100400.00
2022-08-19T22:42:18.501Z,100398.00
2022-08-19T22:44:52.457Z,100411.00
2022-08-19T22:47:29.458Z,100409.00
2022-08-19T22:50:07.843Z,100412.00
2022-08-19T22:52:51.947Z,100416.00
2022-08-19T22:55:34.132Z,100407.00
2022-08-19T22:58:09.973Z,100371.00
2022-08-19T23:00:43.922Z,100415.00
2022-08-19T23:03:17.594Z,100404.00
2022-08-19T23:05:51.418Z,100400.00
2022-08-19T23:08:26.216Z,100413.00
2022-08-19T23:11:06.216Z,100391.00
2022-08-19T23:13:43.395Z,100392.00
2022-08-19T23:16:16.971Z,100406.00
2022-08-19T23:18:50.801Z,100402.00
2022-08-19T23:21:29.891Z,100414.00
2022-08-19T23:24:03.485Z,100397.00
2022-08-19T23:26:38.967Z,100399.00
2022-08-19T23:29:34.975Z,100397.00
2022-08-19T23:32:08.929Z,100385.00
2022-08-19T23:34:42.378Z,100400.00
2022-08-19T23:37:16.055Z,100402.00
2022-08-19T23:39:49.564Z,100393.00
2022-08-19T23:42:26.044Z,100402.00
2022-08-19T23:45:03.785Z,100393.00
2022-08-19T23:47:37.379Z,100384.00
2022-08-19T23:50:15.542Z,100397.00
2022-08-19T23:52:53.305Z,100391.00
2022-08-19T23:55:30.563Z,100395.00
2022-08-19T23:58:08.074Z,100391.00
